Time;durP1;ratioP1;P1;durP2;ratioP2;P2;SDS_P1;SDS_P2;PMS_P1;PMS_P2;Temp;Humidity;BMP_temperature;BMP_pressure;BME280_temperature;BME280_humidity;BME280_pressure;Samples;Min_cycle;Max_cycle;Signal;HPM_P1;HPM_P2
2021/06/25 00:02:20;;;;;;;;;;;;;;;12.93;68.54;102007.22;5135435;27;19922;-40
2021/06/25 00:04:45;;;;;;;;;;;;;;;12.87;68.71;102002.66;5135709;27;19915;-40
2021/06/25 00:07:11;;;;;;;;;;;;;;;12.84;68.63;102003.97;5135212;27;19908;-40
2021/06/25 00:09:37;;;;;;;;;;;;;;;12.81;68.53;102003.56;5134470;27;19908;-40
2021/06/25 00:12:03;;;;;;;;;;;;;;;12.77;68.50;102008.56;5135121;27;19947;-40
2021/06/25 00:14:28;;;;;;;;;;;;;;;12.73;68.47;102001.91;5135399;27;19914;-40
2021/06/25 00:16:53;;;;;;;;;;;;;;;12.68;68.66;102007.16;5134738;28;19907;-40
2021/06/25 00:19:19;;;;;;;;;;;;;;;12.63;68.77;102006.97;5133938;28;19907;-40
2021/06/25 00:21:44;;;;;;;;;;;;;;;12.60;68.72;102007.44;5135467;27;19907;-40
2021/06/25 00:24:09;;;;;;;;;;;;;;;12.56;68.64;102008.91;5135501;28;19915;-40
2021/06/25 00:26:35;;;;;;;;;;;;;;;12.50;68.69;101999.75;5135563;27;20370;-40
2021/06/25 00:29:00;;;;;;;;;;;;;;;12.46;69.05;101987.66;5134514;28;20015;-39
2021/06/25 00:31:26;;;;;;;;;;;;;;;12.41;69.01;101994.78;5135215;27;19912;-40
2021/06/25 00:33:51;;;;;;;;;;;;;;;12.36;68.91;101990.00;5134856;28;19913;-40
2021/06/25 00:36:16;;;;;;;;;;;;;;;12.32;69.08;101988.75;5135139;28;20006;-40
2021/06/25 00:38:41;;;;;;;;;;;;;;;12.27;68.72;101980.44;5134855;27;19954;-41
2021/06/25 00:41:07;;;;;;;;;;;;;;;12.21;68.91;101984.84;5134535;28;20430;-40
2021/06/25 00:43:32;;;;;;;;;;;;;;;12.16;69.15;101979.22;5135017;27;20358;-40
2021/06/25 00:45:57;;;;;;;;;;;;;;;12.11;68.96;101973.63;5135041;28;20331;-40
2021/06/25 00:48:22;;;;;;;;;;;;;;;12.05;69.15;101978.03;5134544;28;19933;-40
2021/06/25 00:50:48;;;;;;;;;;;;;;;12.00;68.85;101969.66;5134961;28;19918;-40
2021/06/25 00:53:13;;;;;;;;;;;;;;;11.93;69.38;101968.88;5134407;27;19950;-39
2021/06/25 00:55:42;;;;;;;;;;;;;;;11.89;69.11;101974.91;5139187;27;19907;-40
2021/06/25 00:58:17;;;;;;;;;;;;;;;11.87;69.45;101968.88;5138532;27;19907;-40
2021/06/25 01:00:43;;;;;;;;;;;;;;;11.85;69.18;101963.66;5139443;27;19911;-40
2021/06/25 01:03:09;;;;;;;;;;;;;;;11.83;69.10;101961.16;5138464;27;19907;-40
2021/06/25 01:05:34;;;;;;;;;;;;;;;11.81;69.12;101960.53;5139347;27;20379;-40
2021/06/25 01:08:00;;;;;;;;;;;;;;;11.81;69.38;101960.53;5138611;27;20221;-39
2021/06/25 01:10:25;;;;;;;;;;;;;;;11.78;69.14;101957.41;5139001;27;19946;-39
2021/06/25 01:12:51;;;;;;;;;;;;;;;11.75;69.33;101955.09;5138285;27;19907;-40
2021/06/25 01:15:16;;;;;;;;;;;;;;;11.73;69.44;101954.50;5139121;27;20055;-40
2021/06/25 01:17:42;;;;;;;;;;;;;;;11.69;69.71;101954.09;5138160;27;19960;-40
2021/06/25 01:20:09;;;;;;;;;;;;;;;11.66;69.53;101956.38;5139045;27;19907;-40
2021/06/25 01:22:35;;;;;;;;;;;;;;;11.59;69.74;101962.63;5138144;27;19915;-40
2021/06/25 01:25:05;;;;;;;;;;;;;;;11.52;70.20;101961.84;5138128;27;19960;-39
2021/06/25 01:27:31;;;;;;;;;;;;;;;11.48;69.31;101957.88;5138212;27;20351;-39
2021/06/25 01:29:57;;;;;;;;;;;;;;;11.46;69.46;101956.41;5137622;27;20004;-40
2021/06/25 01:32:22;;;;;;;;;;;;;;;11.47;69.44;101953.50;5136244;27;20335;-40
2021/06/25 01:34:48;;;;;;;;;;;;;;;11.45;69.69;101946.63;5137979;27;19950;-39
2021/06/25 01:37:13;;;;;;;;;;;;;;;11.40;69.77;101943.69;5137793;27;19908;-39
2021/06/25 01:39:38;;;;;;;;;;;;;;;11.35;69.85;101949.75;5138065;27;20305;-40
2021/06/25 01:42:06;;;;;;;;;;;;;;;11.33;69.60;101960.78;5137412;27;19914;-39
2021/06/25 01:44:34;;;;;;;;;;;;;;;11.29;69.72;101951.41;5137466;27;19959;-40
2021/06/25 01:47:00;;;;;;;;;;;;;;;11.25;69.96;101947.47;5137672;27;19907;-40
2021/06/25 01:49:25;;;;;;;;;;;;;;;11.21;70.05;101940.78;5137970;27;19922;-40
2021/06/25 01:51:50;;;;;;;;;;;;;;;11.20;70.06;101946.41;5137871;27;20289;-40
2021/06/25 01:54:15;;;;;;;;;;;;;;;11.20;70.26;101935.59;5137533;27;19907;-40
2021/06/25 01:56:41;;;;;;;;;;;;;;;11.19;70.11;101940.19;5137518;27;20343;-40
2021/06/25 01:59:06;;;;;;;;;;;;;;;11.18;70.02;101943.09;5137422;27;20401;-40
2021/06/25 02:01:31;;;;;;;;;;;;;;;11.12;69.89;101949.31;5137701;27;20002;-40
2021/06/25 02:03:58;;;;;;;;;;;;;;;11.08;70.35;101944.34;5137304;27;19907;-40
2021/06/25 02:06:23;;;;;;;;;;;;;;;11.04;70.25;101943.09;5137084;27;19915;-40
2021/06/25 02:08:49;;;;;;;;;;;;;;;11.00;70.12;101941.00;5135861;27;19907;-40
2021/06/25 02:11:14;;;;;;;;;;;;;;;10.99;70.04;101942.88;5137255;27;19990;-40
2021/06/25 02:13:40;;;;;;;;;;;;;;;11.00;70.46;101941.84;5137119;27;19907;-40
2021/06/25 02:16:05;;;;;;;;;;;;;;;10.99;70.31;101945.59;5136770;27;19919;-40
2021/06/25 02:18:30;;;;;;;;;;;;;;;10.94;70.35;101941.84;5137021;27;19911;-40
2021/06/25 02:20:56;;;;;;;;;;;;;;;10.88;70.16;101929.94;5137044;27;19960;-40
2021/06/25 02:23:21;;;;;;;;;;;;;;;10.86;70.54;101929.31;5136976;27;19907;-40
2021/06/25 02:25:46;;;;;;;;;;;;;;;10.82;70.86;101928.91;5136982;27;20248;-40
2021/06/25 02:28:11;;;;;;;;;;;;;;;10.80;70.42;101930.97;5137028;27;20343;-40
2021/06/25 02:30:37;;;;;;;;;;;;;;;10.74;70.71;101930.97;5136796;27;20239;-40
2021/06/25 02:33:02;;;;;;;;;;;;;;;10.72;71.14;101933.88;5136730;27;19907;-40
2021/06/25 02:35:28;;;;;;;;;;;;;;;10.72;70.84;101935.75;5136458;27;20240;-40
2021/06/25 02:37:55;;;;;;;;;;;;;;;10.73;71.42;101929.28;5136650;27;19907;-40
2021/06/25 02:40:21;;;;;;;;;;;;;;;10.74;70.98;101920.16;5137211;27;20291;-40
2021/06/25 02:42:46;;;;;;;;;;;;;;;10.75;71.08;101927.25;5136817;27;20003;-40
2021/06/25 02:45:12;;;;;;;;;;;;;;;10.77;71.22;101922.44;5137133;27;19907;-40
2021/06/25 02:47:38;;;;;;;;;;;;;;;10.75;71.40;101924.53;5137323;27;19907;-40
2021/06/25 02:50:04;;;;;;;;;;;;;;;10.73;71.16;101919.31;5136787;27;19946;-40
2021/06/25 02:52:29;;;;;;;;;;;;;;;10.73;70.70;101923.88;5136306;27;19918;-40
2021/06/25 02:54:54;;;;;;;;;;;;;;;10.76;71.60;101918.06;5136081;27;19908;-40
2021/06/25 02:57:19;;;;;;;;;;;;;;;10.75;72.31;101911.84;5136530;27;19907;-40
2021/06/25 02:59:45;;;;;;;;;;;;;;;10.72;71.23;101911.41;5136233;27;19911;-40
2021/06/25 03:02:10;;;;;;;;;;;;;;;10.69;71.75;101918.06;5136217;27;19953;-40
2021/06/25 03:04:35;;;;;;;;;;;;;;;10.68;72.07;101904.72;5136757;27;20014;-40
2021/06/25 03:07:01;;;;;;;;;;;;;;;10.68;71.44;101899.31;5136163;27;20273;-40
2021/06/25 03:09:26;;;;;;;;;;;;;;;10.69;71.61;101896.44;5135626;27;20378;-40
2021/06/25 03:11:51;;;;;;;;;;;;;;;10.68;71.44;101891.22;5135724;27;19942;-40
2021/06/25 03:14:17;;;;;;;;;;;;;;;10.67;71.86;101897.66;5135956;27;19914;-40
2021/06/25 03:16:42;;;;;;;;;;;;;;;10.66;72.62;101887.88;5136156;27;19908;-40
2021/06/25 03:19:07;;;;;;;;;;;;;;;10.66;72.77;101885.19;5136704;27;20318;-40
2021/06/25 03:21:32;;;;;;;;;;;;;;;10.68;72.69;101894.75;5135820;27;19914;-41
2021/06/25 03:23:58;;;;;;;;;;;;;;;10.69;73.11;101882.06;5136318;27;19907;-40
2021/06/25 03:26:23;;;;;;;;;;;;;;;10.68;73.28;101889.34;5136342;27;19907;-40
2021/06/25 03:28:48;;;;;;;;;;;;;;;10.69;73.52;101890.19;5135830;27;19975;-40
2021/06/25 03:31:13;;;;;;;;;;;;;;;10.71;74.05;101891.63;5136208;27;20320;-40
2021/06/25 03:33:39;;;;;;;;;;;;;;;10.75;73.73;101889.34;5135287;27;19908;-40
2021/06/25 03:36:04;;;;;;;;;;;;;;;10.77;73.87;101881.84;5135300;27;19915;-41
2021/06/25 03:38:30;;;;;;;;;;;;;;;10.81;73.73;101873.13;5135518;27;19908;-40
2021/06/25 03:40:56;;;;;;;;;;;;;;;10.89;73.93;101868.56;5136386;27;19911;-40
2021/06/25 03:43:21;;;;;;;;;;;;;;;10.95;73.65;101873.13;5135361;27;20244;-40
2021/06/25 03:45:46;;;;;;;;;;;;;;;11.00;74.05;101870.63;5135496;27;19945;-40
2021/06/25 03:48:12;;;;;;;;;;;;;;;11.05;74.74;101868.97;5135577;27;19912;-40
2021/06/25 03:50:37;;;;;;;;;;;;;;;11.06;75.72;101870.63;5135930;27;19978;-40
2021/06/25 03:53:03;;;;;;;;;;;;;;;11.07;75.93;101876.84;5135557;27;19907;-40
2021/06/25 03:55:28;;;;;;;;;;;;;;;11.10;75.24;101879.16;5135626;27;19915;-40
2021/06/25 03:57:54;;;;;;;;;;;;;;;11.14;75.68;101882.28;5134917;27;19907;-40
2021/06/25 04:00:19;;;;;;;;;;;;;;;11.21;75.81;101877.69;5135474;27;19907;-40
2021/06/25 04:02:45;;;;;;;;;;;;;;;11.26;75.50;101880.59;5134955;27;20275;-40
2021/06/25 04:05:10;;;;;;;;;;;;;;;11.29;75.18;101878.31;5135184;27;19914;-40
2021/06/25 04:07:36;;;;;;;;;;;;;;;11.33;75.18;101874.13;5135356;27;19922;-40
2021/06/25 04:10:03;;;;;;;;;;;;;;;11.41;74.15;101867.66;5135103;27;19914;-40
2021/06/25 04:12:28;;;;;;;;;;;;;;;11.51;74.31;101873.47;5135229;27;19907;-40
2021/06/25 04:14:53;;;;;;;;;;;;;;;11.55;74.06;101863.88;5135894;27;19907;-40
2021/06/25 04:17:19;;;;;;;;;;;;;;;11.62;73.74;101863.03;5135036;27;19914;-40
2021/06/25 04:19:44;;;;;;;;;;;;;;;11.70;73.27;101858.19;5134785;27;20309;-40
2021/06/25 04:22:09;;;;;;;;;;;;;;;11.77;73.20;101855.47;5134708;28;19913;-40
2021/06/25 04:24:35;;;;;;;;;;;;;;;11.82;74.23;101861.13;5134636;28;19918;-40
2021/06/25 04:27:00;;;;;;;;;;;;;;;11.88;72.67;101862.13;5134925;28;19907;-40
2021/06/25 04:29:25;;;;;;;;;;;;;;;11.92;73.57;101850.66;5138329;27;19957;-40
2021/06/25 04:31:53;;;;;;;;;;;;;;;11.95;73.90;101858.34;5139446;27;19967;-41
2021/06/25 04:34:19;;;;;;;;;;;;;;;11.98;74.68;101855.19;5139063;27;19907;-40
2021/06/25 04:36:44;;;;;;;;;;;;;;;12.00;74.80;101846.84;5138800;27;19914;-40
2021/06/25 04:39:09;;;;;;;;;;;;;;;12.03;74.01;101849.13;5138735;27;19907;-40
2021/06/25 04:41:35;;;;;;;;;;;;;;;12.08;73.72;101850.16;5138963;27;19919;-40
2021/06/25 04:44:00;;;;;;;;;;;;;;;12.11;74.04;101849.72;5139435;27;19914;-40
2021/06/25 04:46:26;;;;;;;;;;;;;;;12.15;73.35;101842.00;5138855;27;20015;-40
2021/06/25 04:48:51;;;;;;;;;;;;;;;12.24;73.82;101846.09;5139706;27;19912;-40
2021/06/25 04:51:16;;;;;;;;;;;;;;;12.30;74.13;101839.00;5138750;27;19907;-40
2021/06/25 04:53:41;;;;;;;;;;;;;;;12.34;73.16;101837.47;5138392;27;19967;-40
2021/06/25 04:56:06;;;;;;;;;;;;;;;12.40;73.62;101833.09;5138394;27;19907;-40
2021/06/25 04:58:32;;;;;;;;;;;;;;;12.43;73.77;101833.47;5138285;27;19907;-40
2021/06/25 05:00:58;;;;;;;;;;;;;;;12.44;74.24;101832.41;5138934;27;19907;-40
2021/06/25 05:03:24;;;;;;;;;;;;;;;12.46;73.28;101826.78;5138514;27;20266;-40
2021/06/25 05:05:49;;;;;;;;;;;;;;;12.52;73.93;101832.13;5138284;27;19907;-40
2021/06/25 05:08:14;;;;;;;;;;;;;;;12.58;73.77;101831.25;5138285;27;19934;-40
2021/06/25 05:10:40;;;;;;;;;;;;;;;12.65;74.26;101825.78;5138401;27;19907;-40
2021/06/25 05:13:05;;;;;;;;;;;;;;;12.69;73.69;101832.44;5138303;27;19955;-40
2021/06/25 05:15:31;;;;;;;;;;;;;;;12.75;72.90;101822.59;5138333;27;19914;-40
2021/06/25 05:17:56;;;;;;;;;;;;;;;12.83;74.07;101817.72;5138191;27;19907;-40
2021/06/25 05:20:21;;;;;;;;;;;;;;;12.86;74.26;101827.28;5138238;27;19911;-40
2021/06/25 05:22:47;;;;;;;;;;;;;;;12.89;73.71;101824.13;5138163;27;20002;-40
2021/06/25 05:25:13;;;;;;;;;;;;;;;12.97;73.60;101828.44;5138407;27;20348;-40
2021/06/25 05:27:38;;;;;;;;;;;;;;;13.05;73.11;101825.44;5138013;27;20347;-40
2021/06/25 05:30:04;;;;;;;;;;;;;;;13.14;73.83;101824.94;5138018;27;19907;-40
2021/06/25 05:32:30;;;;;;;;;;;;;;;13.24;73.61;101820.91;5137625;27;19956;-40
2021/06/25 05:34:55;;;;;;;;;;;;;;;13.30;73.84;101812.69;5137668;27;19911;-41
2021/06/25 05:37:20;;;;;;;;;;;;;;;13.40;72.86;101812.16;5137857;27;19915;-40
2021/06/25 05:39:45;;;;;;;;;;;;;;;13.48;74.72;101821.91;5137570;27;19907;-40
2021/06/25 05:42:11;;;;;;;;;;;;;;;13.53;73.45;101814.72;5137742;27;19915;-40
2021/06/25 05:44:36;;;;;;;;;;;;;;;13.59;73.55;101815.69;5137776;27;19907;-40
2021/06/25 05:47:02;;;;;;;;;;;;;;;13.63;73.88;101820.47;5137407;27;20347;-40
2021/06/25 05:49:28;;;;;;;;;;;;;;;13.67;73.26;101815.41;5138097;27;19991;-40
2021/06/25 05:51:53;;;;;;;;;;;;;;;13.71;73.72;101807.59;5137555;27;19911;-40
2021/06/25 05:54:18;;;;;;;;;;;;;;;13.76;73.20;101807.75;5137848;27;19914;-40
2021/06/25 05:56:43;;;;;;;;;;;;;;;13.79;73.42;101804.59;5138390;27;19914;-40
2021/06/25 05:59:08;;;;;;;;;;;;;;;13.79;73.65;101813.56;5137401;27;19930;-40
2021/06/25 06:01:34;;;;;;;;;;;;;;;13.82;73.16;101807.69;5137409;27;19908;-40
2021/06/25 06:03:59;;;;;;;;;;;;;;;13.85;73.39;101800.94;5137067;27;19955;-40
2021/06/25 06:06:24;;;;;;;;;;;;;;;13.86;73.55;101800.72;5138250;27;19990;-40
2021/06/25 06:08:49;;;;;;;;;;;;;;;13.86;73.72;101806.16;5136920;27;20336;-40
2021/06/25 06:11:14;;;;;;;;;;;;;;;13.87;73.71;101810.53;5137305;27;20335;-40
2021/06/25 06:13:40;;;;;;;;;;;;;;;13.84;73.94;101805.56;5137140;27;20266;-40
2021/06/25 06:16:05;;;;;;;;;;;;;;;13.84;73.27;101808.25;5137450;27;19911;-40
2021/06/25 06:18:36;;;;;;;;;;;;;;;13.90;73.36;101814.66;5137519;27;19942;-40
2021/06/25 06:21:01;;;;;;;;;;;;;;;13.90;73.83;101812.78;5137329;27;19907;-40
2021/06/25 06:31:42;;;;;;;;;;;;;;;13.93;73.87;101816.13;5137164;27;19915;-40
2021/06/25 06:34:11;;;;;;;;;;;;;;;13.94;73.66;101812.34;5136981;27;19907;-40
2021/06/25 06:36:45;;;;;;;;;;;;;;;13.97;74.30;101818.16;5137416;27;20231;-40
2021/06/25 06:39:13;;;;;;;;;;;;;;;13.99;74.22;101816.03;5136676;27;19943;-40
2021/06/25 06:41:38;;;;;;;;;;;;;;;13.98;74.20;101808.09;5136358;27;19907;-41
2021/06/25 06:44:03;;;;;;;;;;;;;;;14.04;74.05;101808.00;5136559;27;19907;-40
2021/06/25 06:46:29;;;;;;;;;;;;;;;14.12;73.88;101806.84;5137124;27;19907;-41
2021/06/25 06:48:54;;;;;;;;;;;;;;;14.17;73.54;101807.81;5136270;27;19911;-40
2021/06/25 06:51:21;;;;;;;;;;;;;;;14.21;73.71;101818.25;5135819;27;19959;-40
2021/06/25 06:53:46;;;;;;;;;;;;;;;14.22;73.51;101820.72;5136527;27;19914;-40
2021/06/25 06:56:12;;;;;;;;;;;;;;;14.22;73.91;101819.91;5136245;27;19907;-40
2021/06/25 06:58:38;;;;;;;;;;;;;;;14.15;74.10;101819.97;5136233;27;19907;-40
2021/06/25 07:01:03;;;;;;;;;;;;;;;14.14;73.93;101832.75;5136849;27;19907;-40
2021/06/25 07:03:28;;;;;;;;;;;;;;;14.16;73.61;101835.25;5136055;27;19960;-40
2021/06/25 07:05:54;;;;;;;;;;;;;;;14.18;73.46;101835.84;5136752;27;19954;-40
2021/06/25 07:08:19;;;;;;;;;;;;;;;14.17;74.19;101824.13;5136268;27;19914;-40
2021/06/25 07:10:45;;;;;;;;;;;;;;;14.17;74.34;101828.75;5136332;27;20484;-40
2021/06/25 07:13:10;;;;;;;;;;;;;;;14.20;73.21;101830.16;5136517;27;19930;-40
2021/06/25 07:15:36;;;;;;;;;;;;;;;14.22;73.56;101836.22;5134661;27;19915;-40
2021/06/25 07:18:02;;;;;;;;;;;;;;;14.25;73.45;101841.19;5136517;27;19908;-40
2021/06/25 07:20:27;;;;;;;;;;;;;;;14.27;73.55;101842.63;5135853;27;19907;-41
2021/06/25 07:22:52;;;;;;;;;;;;;;;14.28;73.39;101846.16;5136376;27;19930;-40
2021/06/25 07:25:17;;;;;;;;;;;;;;;14.30;73.17;101839.44;5136109;27;19914;-40
2021/06/25 07:27:43;;;;;;;;;;;;;;;14.34;72.96;101845.25;5135991;27;20246;-40
2021/06/25 07:30:08;;;;;;;;;;;;;;;14.36;73.39;101840.41;5135428;27;20262;-40
2021/06/25 07:32:34;;;;;;;;;;;;;;;14.35;73.25;101836.88;5135385;27;19908;-40
2021/06/25 07:34:59;;;;;;;;;;;;;;;14.34;73.32;101839.78;5135663;27;20262;-40
2021/06/25 07:37:24;;;;;;;;;;;;;;;14.37;72.75;101834.72;5134305;27;19907;-40
2021/06/25 07:39:49;;;;;;;;;;;;;;;14.38;72.97;101825.50;5136380;27;19946;-40
2021/06/25 07:42:15;;;;;;;;;;;;;;;14.42;72.90;101834.03;5135805;27;19912;-40
2021/06/25 07:44:40;;;;;;;;;;;;;;;14.46;72.78;101834.41;5135661;27;19915;-40
2021/06/25 07:47:05;;;;;;;;;;;;;;;14.50;73.11;101836.47;5134940;27;19955;-40
2021/06/25 07:49:30;;;;;;;;;;;;;;;14.53;72.97;101837.88;5136034;27;19911;-40
2021/06/25 07:51:56;;;;;;;;;;;;;;;14.56;73.12;101827.34;5135040;27;20247;-40
2021/06/25 07:54:21;;;;;;;;;;;;;;;14.62;72.61;101834.59;5135825;27;19907;-40
2021/06/25 07:56:46;;;;;;;;;;;;;;;14.72;72.50;101835.91;5135481;27;20366;-40
2021/06/25 07:59:11;;;;;;;;;;;;;;;14.82;72.76;101836.97;5135165;27;19914;-40
2021/06/25 08:01:37;;;;;;;;;;;;;;;14.91;72.12;101829.28;5135458;27;20397;-40
2021/06/25 08:04:02;;;;;;;;;;;;;;;14.97;72.27;101832.97;5134788;27;19968;-40
2021/06/25 08:06:28;;;;;;;;;;;;;;;15.02;71.81;101824.91;5135457;27;19914;-40
2021/06/25 08:08:54;;;;;;;;;;;;;;;15.08;71.83;101830.25;5134955;27;19953;-40
2021/06/25 08:11:19;;;;;;;;;;;;;;;15.17;71.49;101831.53;5135008;27;19908;-40
2021/06/25 08:13:44;;;;;;;;;;;;;;;15.24;70.72;101833.34;5134657;28;20304;-40
2021/06/25 08:16:09;;;;;;;;;;;;;;;15.30;70.97;101830.47;5135242;28;19907;-40
2021/06/25 08:18:35;;;;;;;;;;;;;;;15.38;70.81;101827.38;5134884;28;19955;-40
2021/06/25 08:21:00;;;;;;;;;;;;;;;15.51;70.80;101831.75;5135651;28;20002;-40
2021/06/25 08:23:25;;;;;;;;;;;;;;;15.63;70.84;101826.28;5134681;28;19912;-40
2021/06/25 08:25:50;;;;;;;;;;;;;;;15.74;69.77;101821.91;5135155;28;19908;-41
2021/06/25 08:28:15;;;;;;;;;;;;;;;15.80;69.21;101815.47;5134721;28;20052;-40
2021/06/25 08:30:41;;;;;;;;;;;;;;;15.88;69.10;101809.63;5134416;28;20256;-40
2021/06/25 08:33:07;;;;;;;;;;;;;;;15.99;69.48;101813.38;5134349;27;19907;-40
2021/06/25 08:35:32;;;;;;;;;;;;;;;16.09;69.20;101811.66;5134882;27;19952;-40
2021/06/25 08:37:57;;;;;;;;;;;;;;;16.14;67.70;101814.50;5133990;28;19908;-40
2021/06/25 08:40:23;;;;;;;;;;;;;;;16.21;67.72;101808.91;5135111;28;20263;-41
2021/06/25 08:42:48;;;;;;;;;;;;;;;16.28;68.03;101806.00;5134928;28;20358;-40
2021/06/25 08:45:14;;;;;;;;;;;;;;;16.34;68.12;101802.28;5134985;27;19914;-40
2021/06/25 08:47:41;;;;;;;;;;;;;;;16.44;68.04;101803.28;5134406;27;19956;-40
2021/06/25 08:50:08;;;;;;;;;;;;;;;16.54;67.53;101802.63;5135780;27;19963;-40
2021/06/25 08:52:33;;;;;;;;;;;;;;;16.66;67.42;101797.13;5134420;27;19918;-40
2021/06/25 08:54:58;;;;;;;;;;;;;;;16.81;66.96;101799.28;5134621;28;19907;-40
2021/06/25 08:57:24;;;;;;;;;;;;;;;16.97;66.54;101798.44;5133219;28;20011;-40
2021/06/25 08:59:50;;;;;;;;;;;;;;;17.12;66.08;101801.38;5134617;27;19907;-41
2021/06/25 09:02:16;;;;;;;;;;;;;;;17.29;66.30;101786.88;5134533;27;19918;-40
2021/06/25 09:04:41;;;;;;;;;;;;;;;17.50;66.40;101791.50;5134865;27;20001;-41
2021/06/25 09:07:08;;;;;;;;;;;;;;;17.72;64.62;101789.59;5134240;27;20362;-41
2021/06/25 09:09:43;;;;;;;;;;;;;;;17.91;64.11;101794.75;5134094;27;20374;-40
2021/06/25 09:12:10;;;;;;;;;;;;;;;18.01;63.95;101794.88;5134209;27;19931;-41
2021/06/25 09:14:54;;;;;;;;;;;;;;;18.17;63.26;101791.22;5135235;27;19915;-40
2021/06/25 09:17:19;;;;;;;;;;;;;;;18.26;62.88;101781.44;5138746;27;19916;-41
2021/06/25 09:19:44;;;;;;;;;;;;;;;18.32;61.47;101781.50;5138121;27;19911;-41
2021/06/25 09:22:09;;;;;;;;;;;;;;;18.28;61.33;101779.25;5139032;27;19908;-41
2021/06/25 09:24:35;;;;;;;;;;;;;;;18.27;62.30;101779.53;5137707;27;19911;-41
2021/06/25 09:27:01;;;;;;;;;;;;;;;18.22;61.94;101776.75;5137994;27;19914;-41
2021/06/25 09:29:29;;;;;;;;;;;;;;;18.26;62.89;101773.22;5138189;27;19953;-40
2021/06/25 09:31:55;;;;;;;;;;;;;;;18.37;62.24;101778.78;5137932;27;19938;-41
2021/06/25 09:34:32;;;;;;;;;;;;;;;18.47;61.91;101773.41;5137937;27;19912;-41
2021/06/25 09:37:01;;;;;;;;;;;;;;;18.56;62.42;101779.22;5137894;27;19915;-41
2021/06/25 09:39:26;;;;;;;;;;;;;;;18.65;62.52;101780.41;5137775;27;19998;-40
2021/06/25 09:41:52;;;;;;;;;;;;;;;18.77;62.31;101781.88;5138188;27;19999;-40
2021/06/25 09:44:18;;;;;;;;;;;;;;;18.89;62.17;101778.16;5137706;27;19914;-41
2021/06/25 09:46:44;;;;;;;;;;;;;;;19.02;62.42;101783.97;5138069;27;20364;-40
2021/06/25 09:49:10;;;;;;;;;;;;;;;19.17;60.85;101785.97;5137647;27;19911;-41
2021/06/25 09:51:37;;;;;;;;;;;;;;;19.24;60.26;101772.84;5137559;27;19937;-41
2021/06/25 09:54:02;;;;;;;;;;;;;;;19.32;59.81;101766.03;5137316;27;19914;-41
2021/06/25 09:56:27;;;;;;;;;;;;;;;19.40;60.13;101775.66;5138081;27;20002;-40
2021/06/25 09:59:21;;;;;;;;;;;;;;;19.43;58.77;101773.22;5137424;27;19908;-41
2021/06/25 10:01:47;;;;;;;;;;;;;;;19.50;60.07;101771.03;5137393;27;20001;-40
2021/06/25 10:04:12;;;;;;;;;;;;;;;19.56;60.03;101764.47;5137315;27;19914;-41
2021/06/25 10:06:37;;;;;;;;;;;;;;;19.61;60.02;101766.44;5137381;27;19952;-41
2021/06/25 10:09:04;;;;;;;;;;;;;;;19.68;59.37;101761.56;5137159;27;19907;-41
2021/06/25 10:11:30;;;;;;;;;;;;;;;19.76;57.33;101769.25;5137513;27;20259;-41
2021/06/25 10:13:57;;;;;;;;;;;;;;;19.86;58.73;101762.13;5137082;27;19912;-41
2021/06/25 10:16:23;;;;;;;;;;;;;;;19.92;57.44;101761.88;5137719;27;20002;-41
2021/06/25 10:18:49;;;;;;;;;;;;;;;19.95;57.97;101755.00;5137409;27;19950;-41
2021/06/25 10:21:19;;;;;;;;;;;;;;;19.98;57.81;101760.78;5136757;27;19915;-41
2021/06/25 10:23:48;;;;;;;;;;;;;;;20.00;57.73;101755.03;5136949;27;19907;-41
2021/06/25 10:26:15;;;;;;;;;;;;;;;20.08;57.17;101750.94;5136919;27;20001;-41
2021/06/25 10:28:41;;;;;;;;;;;;;;;20.17;56.47;101754.78;5136560;27;19907;-41
2021/06/25 10:31:08;;;;;;;;;;;;;;;20.36;56.43;101744.91;5136838;27;20347;-41
2021/06/25 10:33:33;;;;;;;;;;;;;;;20.67;56.38;101745.72;5137028;27;19907;-41
2021/06/25 10:36:00;;;;;;;;;;;;;;;20.98;57.50;101746.47;5136521;27;20419;-41
2021/06/25 10:38:27;;;;;;;;;;;;;;;21.42;56.29;101733.97;5137232;27;19911;-41
2021/06/25 10:40:54;;;;;;;;;;;;;;;21.73;51.66;101743.75;5136750;27;19914;-41
2021/06/25 10:43:38;;;;;;;;;;;;;;;21.97;53.71;101743.03;5136498;27;19929;-41
2021/06/25 10:46:03;;;;;;;;;;;;;;;22.05;51.83;101737.72;5136810;27;19960;-41
2021/06/25 10:48:39;;;;;;;;;;;;;;;22.05;52.33;101740.47;5136553;27;19907;-41
2021/06/25 10:51:35;;;;;;;;;;;;;;;21.93;52.56;101744.72;5137354;27;19914;-41
2021/06/25 10:54:16;;;;;;;;;;;;;;;21.69;51.18;101736.34;5135293;27;19907;-41
2021/06/25 10:56:47;;;;;;;;;;;;;;;21.51;52.64;101740.53;5136063;27;19908;-41
2021/06/25 10:59:18;;;;;;;;;;;;;;;21.37;52.71;101748.59;5135965;27;19914;-41
2021/06/25 11:01:48;;;;;;;;;;;;;;;21.29;51.57;101738.97;5136600;27;19930;-41
2021/06/25 11:04:32;;;;;;;;;;;;;;;21.23;51.30;101751.09;5136477;27;19912;-41
2021/06/25 11:06:58;;;;;;;;;;;;;;;21.04;48.81;101739.06;5136454;27;19907;-41
2021/06/25 11:09:46;;;;;;;;;;;;;;;20.98;48.77;101753.91;5135777;27;19914;-41
2021/06/25 11:12:25;;;;;;;;;;;;;;;20.89;49.83;101741.84;5135994;27;19907;-41
2021/06/25 11:15:10;;;;;;;;;;;;;;;20.85;50.92;101746.25;5136376;27;19907;-41
2021/06/25 11:17:45;;;;;;;;;;;;;;;20.87;50.96;101746.78;5121027;27;19963;-41
2021/06/25 11:20:15;;;;;;;;;;;;;;;20.83;49.33;101747.34;5136467;27;19908;-41
2021/06/25 11:22:40;;;;;;;;;;;;;;;20.79;50.70;101749.03;5136471;27;20347;-41
2021/06/25 11:25:11;;;;;;;;;;;;;;;20.77;50.54;101755.88;5136079;27;19907;-41
2021/06/25 11:28:00;;;;;;;;;;;;;;;20.71;51.08;101748.75;5136143;27;19908;-41
2021/06/25 11:30:45;;;;;;;;;;;;;;;20.66;49.73;101760.56;5136444;27;19962;-41
2021/06/25 11:33:29;;;;;;;;;;;;;;;20.55;49.22;101747.97;5120807;27;19907;-41
2021/06/25 11:35:54;;;;;;;;;;;;;;;20.53;50.50;101750.97;5135983;27;20266;-41
2021/06/25 11:38:39;;;;;;;;;;;;;;;20.53;49.60;101755.63;5135069;27;19998;-41
2021/06/25 11:41:11;;;;;;;;;;;;;;;20.51;48.80;101746.84;5135736;27;20254;-40
2021/06/25 11:43:36;;;;;;;;;;;;;;;20.46;48.00;101744.09;5136072;27;19946;-41
2021/06/25 11:46:03;;;;;;;;;;;;;;;20.43;47.71;101742.69;5136110;27;19922;-41
2021/06/25 11:48:32;;;;;;;;;;;;;;;20.46;48.50;101736.66;5135452;27;19907;-41
2021/06/25 11:50:58;;;;;;;;;;;;;;;20.50;49.01;101740.53;5136702;27;19919;-41
2021/06/25 11:53:24;;;;;;;;;;;;;;;20.66;49.41;101744.09;5135351;27;20014;-41
2021/06/25 11:55:53;;;;;;;;;;;;;;;20.92;49.88;101741.28;5136247;27;19954;-41
2021/06/25 11:58:19;;;;;;;;;;;;;;;21.17;48.48;101741.19;5135224;27;19907;-41
2021/06/25 12:00:45;;;;;;;;;;;;;;;21.26;48.70;101733.19;5135293;27;20002;-41
2021/06/25 12:03:10;;;;;;;;;;;;;;;21.30;46.93;101740.66;5134917;27;19946;-41
2021/06/25 12:05:39;;;;;;;;;;;;;;;21.19;46.68;101747.25;5134928;27;20355;-41
2021/06/25 12:08:10;;;;;;;;;;;;;;;21.08;47.87;101746.47;5135504;27;19914;-41
2021/06/25 12:10:36;;;;;;;;;;;;;;;20.99;48.53;101752.81;5135052;27;19911;-41
2021/06/25 12:13:02;;;;;;;;;;;;;;;20.97;47.47;101755.84;5134690;27;19914;-41
2021/06/25 12:15:29;;;;;;;;;;;;;;;20.93;47.90;101754.75;5135648;27;19907;-41
2021/06/25 12:17:56;;;;;;;;;;;;;;;20.96;46.91;101754.19;5135064;27;20296;-40
2021/06/25 12:20:23;;;;;;;;;;;;;;;21.01;47.41;101764.34;5135040;27;19908;-41
2021/06/25 12:22:57;;;;;;;;;;;;;;;21.06;47.89;101759.66;5135589;27;19908;-40
2021/06/25 12:25:26;;;;;;;;;;;;;;;21.03;47.92;101756.66;5135861;28;19908;-40
2021/06/25 12:27:51;;;;;;;;;;;;;;;21.00;47.65;101755.28;5134931;27;20420;-41
2021/06/25 12:30:17;;;;;;;;;;;;;;;20.93;47.12;101748.41;5134912;28;19911;-41
2021/06/25 12:32:42;;;;;;;;;;;;;;;20.88;48.00;101759.44;5135775;27;19908;-41
2021/06/25 12:35:08;;;;;;;;;;;;;;;20.86;47.96;101754.22;5135493;27;20243;-41
2021/06/25 12:37:47;;;;;;;;;;;;;;;20.90;48.57;101752.56;5134833;27;19914;-41
2021/06/25 12:40:13;;;;;;;;;;;;;;;20.90;49.23;101754.50;5135714;27;20312;-41
2021/06/25 12:42:38;;;;;;;;;;;;;;;20.90;48.77;101760.81;5134454;27;20014;-41